Time;durP1;ratioP1;P1;durP2;ratioP2;P2;SDS_P1;SDS_P2;PMS_P1;PMS_P2;Temp;Humidity;BMP_temperature;BMP_pressure;BME280_temperature;BME280_humidity;BME280_pressure;Samples;Min_cycle;Max_cycle;Signal;HPM_P1;HPM_P2
2021/10/16 00:00:16;;;;;;;5.73;2.37;;;22.90;58.50;;;;;;5216373;28;20056;-83
2021/10/16 00:02:49;;;;;;;3.80;2.15;;;22.90;58.50;;;;;;5198219;28;20048;-84
2021/10/16 00:05:21;;;;;;;5.07;2.67;;;22.90;58.50;;;;;;5204098;28;20044;-84
2021/10/16 00:07:54;;;;;;;5.40;2.60;;;22.90;58.60;;;;;;5198930;28;20044;-82
2021/10/16 00:10:26;;;;;;;3.15;2.17;;;22.90;58.60;;;;;;5200430;28;20048;-82
2021/10/16 00:12:59;;;;;;;3.65;2.28;;;22.90;58.60;;;;;;5219845;28;21439;-81
2021/10/16 00:15:31;;;;;;;5.28;2.58;;;22.90;58.60;;;;;;5216669;28;20510;-82
2021/10/16 00:18:05;;;;;;;5.97;2.92;;;22.90;58.60;;;;;;5222796;28;20043;-82
2021/10/16 00:20:37;;;;;;;3.15;2.30;;;22.90;58.60;;;;;;5217303;28;20048;-84
2021/10/16 00:23:10;;;;;;;5.75;2.30;;;22.90;58.60;;;;;;5223171;28;20033;-82
2021/10/16 00:25:42;;;;;;;5.40;2.55;;;22.90;58.70;;;;;;5230939;28;20048;-82
2021/10/16 00:28:15;;;;;;;5.30;2.97;;;22.90;58.70;;;;;;5203516;28;20069;-82
2021/10/16 00:30:48;;;;;;;3.08;2.53;;;22.90;58.60;;;;;;5191360;28;20040;-82
2021/10/16 00:33:20;;;;;;;5.47;2.20;;;22.90;58.60;;;;;;5223743;28;20077;-83
2021/10/16 00:35:53;;;;;;;5.88;2.58;;;22.90;58.70;;;;;;5233644;28;20055;-81
2021/10/16 00:38:25;;;;;;;4.07;2.17;;;22.90;58.70;;;;;;5207288;28;20048;-83
2021/10/16 00:40:58;;;;;;;3.65;2.28;;;22.90;58.70;;;;;;5208771;28;20041;-82
2021/10/16 00:43:30;;;;;;;4.35;2.50;;;22.90;58.80;;;;;;5220445;28;20040;-82
2021/10/16 00:46:03;;;;;;;3.50;2.10;;;22.90;58.70;;;;;;5218282;28;20406;-82
2021/10/16 00:48:35;;;;;;;5.57;2.45;;;22.90;58.70;;;;;;5206335;28;20494;-82
2021/10/16 00:51:08;;;;;;;3.53;2.22;;;22.90;58.70;;;;;;5201323;28;26267;-81
2021/10/16 00:53:40;;;;;;;3.65;2.20;;;22.90;58.70;;;;;;5214791;28;20059;-84
2021/10/16 00:56:13;;;;;;;3.08;2.28;;;22.90;58.70;;;;;;5204004;28;20419;-84
2021/10/16 00:58:45;;;;;;;6.45;2.40;;;22.90;58.70;;;;;;5210289;28;20516;-84
2021/10/16 01:01:18;;;;;;;3.58;2.05;;;22.90;58.70;;;;;;5199754;28;20041;-81
2021/10/16 01:03:51;;;;;;;3.28;2.08;;;22.90;58.80;;;;;;5190309;28;20064;-82
2021/10/16 01:06:23;;;;;;;3.25;2.15;;;22.80;58.70;;;;;;5223637;28;20064;-83
2021/10/16 01:08:57;;;;;;;3.13;2.03;;;22.90;58.70;;;;;;5192837;28;20047;-82
2021/10/16 01:11:32;;;;;;;;;;;22.90;58.70;;;;;;5206878;28;20055;-82
2021/10/16 01:14:08;;;;;;;4.55;2.30;;;22.80;58.70;;;;;;5207975;28;20309;-82
2021/10/16 01:16:42;;;;;;;3.85;2.10;;;22.80;59.40;;;;;;5226229;28;20048;-82
2021/10/16 01:19:19;;;;;;;2.88;2.10;;;22.80;58.80;;;;;;5222268;28;20059;-83
2021/10/16 01:21:52;;;;;;;3.40;2.10;;;22.80;58.70;;;;;;5209991;28;21322;-82
2021/10/16 01:24:25;;;;;;;4.05;2.53;;;22.80;58.80;;;;;;5216913;28;20047;-84
2021/10/16 01:26:58;;;;;;;4.07;2.20;;;22.80;58.80;;;;;;5195814;28;20123;-83
2021/10/16 01:29:34;;;;;;;4.50;2.00;;;22.80;58.70;;;;;;5199500;28;20043;-82
2021/10/16 01:32:07;;;;;;;2.97;2.30;;;22.80;58.80;;;;;;5199567;28;20045;-83
2021/10/16 01:34:39;;;;;;;4.30;2.05;;;22.80;58.70;;;;;;5222554;28;20060;-83
2021/10/16 01:37:12;;;;;;;3.67;2.55;;;22.80;58.80;;;;;;5203945;28;20040;-83
2021/10/16 01:39:47;;;;;;;3.17;2.03;;;22.80;58.80;;;;;;5226533;28;20580;-83
2021/10/16 01:42:20;;;;;;;3.60;2.50;;;22.80;58.80;;;;;;5205040;28;20047;-83
2021/10/16 01:45:03;;;;;;;3.35;2.22;;;22.80;58.80;;;;;;5207165;28;20544;-83
2021/10/16 01:47:49;;;;;;;3.28;2.10;;;22.80;58.80;;;;;;5224181;28;20065;-82
2021/10/16 01:50:39;;;;;;;4.57;2.30;;;22.80;58.80;;;;;;5213033;28;20045;-82
2021/10/16 01:53:35;;;;;;;6.05;2.55;;;22.80;58.80;;;;;;5208484;28;20443;-82
2021/10/16 01:56:08;;;;;;;;;;;22.80;58.90;;;;;;5209288;28;20047;-82
2021/10/16 01:58:47;;;;;;;3.03;2.30;;;22.80;58.90;;;;;;5210516;28;19928;-82
2021/10/16 02:01:33;;;;;;;3.70;2.22;;;22.80;59.00;;;;;;5237715;28;20048;-83
2021/10/16 02:04:21;;;;;;;3.08;2.42;;;22.80;58.90;;;;;;5205611;28;20482;-83
2021/10/16 02:06:54;;;;;;;5.05;2.50;;;22.80;59.00;;;;;;5221905;28;20401;-83
2021/10/16 02:09:28;;;;;;;4.93;2.60;;;22.80;59.00;;;;;;5206584;28;20425;-81
2021/10/16 02:12:01;;;;;;;3.75;2.22;;;22.80;58.90;;;;;;5204699;28;20304;-82
2021/10/16 02:14:39;;;;;;;3.40;2.25;;;22.80;58.90;;;;;;5202297;28;20044;-82
2021/10/16 02:17:15;;;;;;;4.00;2.58;;;22.80;58.90;;;;;;5222065;28;20040;-83
2021/10/16 02:19:48;;;;;;;2.95;2.08;;;22.80;58.90;;;;;;5236956;28;20055;-82
2021/10/16 02:22:22;;;;;;;2.22;1.90;;;22.80;59.00;;;;;;5206051;28;20543;-83
2021/10/16 02:24:55;;;;;;;3.53;2.28;;;22.80;59.00;;;;;;5188983;28;22169;-85
2021/10/16 02:27:28;;;;;;;3.00;2.00;;;22.80;58.90;;;;;;5200855;28;20316;-82
2021/10/16 02:30:03;;;;;;;2.70;2.17;;;22.80;58.90;;;;;;5189825;28;20056;-82
2021/10/16 02:32:38;;;;;;;3.35;2.13;;;22.80;59.00;;;;;;5218194;28;20550;-82
2021/10/16 02:35:12;;;;;;;3.20;2.28;;;22.80;59.00;;;;;;5221713;28;20085;-84
2021/10/16 02:37:44;;;;;;;2.92;2.20;;;22.80;59.00;;;;;;5206898;28;20045;-84
2021/10/16 02:40:17;;;;;;;3.95;2.38;;;22.80;59.00;;;;;;5223277;28;20041;-84
2021/10/16 02:42:50;;;;;;;4.63;2.43;;;22.80;59.00;;;;;;5210025;28;20075;-83
2021/10/16 02:45:22;;;;;;;4.78;2.25;;;22.80;59.00;;;;;;5205952;28;20063;-82
2021/10/16 02:47:55;;;;;;;3.25;2.38;;;22.80;59.00;;;;;;5209537;28;20490;-82
2021/10/16 02:50:27;;;;;;;3.45;2.38;;;22.80;59.00;;;;;;5172731;28;20055;-83
2021/10/16 02:53:00;;;;;;;3.60;2.30;;;22.80;59.00;;;;;;5205918;28;20040;-82
2021/10/16 02:55:33;;;;;;;3.72;2.28;;;22.80;59.00;;;;;;5235774;28;20063;-83
2021/10/16 02:58:07;;;;;;;5.53;2.22;;;22.80;59.00;;;;;;5225545;28;20036;-82
2021/10/16 03:00:41;;;;;;;3.90;2.47;;;22.80;59.00;;;;;;5209569;28;20055;-82
2021/10/16 03:03:14;;;;;;;4.33;2.20;;;22.80;59.10;;;;;;5207838;28;20044;-80
2021/10/16 03:05:48;;;;;;;;;;;22.80;59.10;;;;;;5191781;28;20048;-80
2021/10/16 03:08:23;;;;;;;4.75;2.20;;;22.80;59.10;;;;;;5195810;28;19931;-80
2021/10/16 03:10:55;;;;;;;4.38;2.58;;;22.80;59.20;;;;;;5207070;28;20517;-80
2021/10/16 03:13:47;;;;;;;5.95;2.22;;;22.80;59.10;;;;;;5222086;28;20051;-80
2021/10/16 03:16:23;;;;;;;3.28;2.28;;;22.80;59.20;;;;;;5185969;28;20048;-80
2021/10/16 03:18:56;;;;;;;3.75;2.25;;;22.80;59.20;;;;;;5222611;28;20398;-81
2021/10/16 03:21:28;;;;;;;4.35;2.35;;;22.80;59.20;;;;;;5199501;28;20040;-80
2021/10/16 03:24:02;;;;;;;4.95;2.63;;;22.80;59.10;;;;;;5200063;28;20044;-81
2021/10/16 03:26:35;;;;;;;3.50;2.20;;;22.80;59.10;;;;;;5204176;28;20386;-80
2021/10/16 03:29:07;;;;;;;4.57;2.80;;;22.80;59.20;;;;;;5220544;28;20044;-80
2021/10/16 03:31:40;;;;;;;5.82;2.25;;;22.80;59.10;;;;;;5202366;28;20044;-81
2021/10/16 03:34:12;;;;;;;5.32;2.00;;;22.80;59.10;;;;;;5221197;28;20067;-80
2021/10/16 03:36:47;;;;;;;3.28;2.30;;;22.80;59.10;;;;;;5218843;28;20086;-80
2021/10/16 03:39:19;;;;;;;4.10;2.30;;;22.80;59.10;;;;;;5207628;28;20083;-80
2021/10/16 03:41:52;;;;;;;4.43;2.50;;;22.80;59.10;;;;;;5204787;28;20047;-80
2021/10/16 03:44:25;;;;;;;5.47;2.47;;;22.80;59.20;;;;;;5204092;28;20048;-80
2021/10/16 03:46:58;;;;;;;6.38;2.42;;;22.80;59.50;;;;;;5241258;28;20449;-80
2021/10/16 03:49:31;;;;;;;4.13;2.43;;;22.80;59.10;;;;;;5220101;28;20393;-80
2021/10/16 03:52:08;;;;;;;4.35;2.33;;;22.80;59.10;;;;;;5221085;28;20049;-81
2021/10/16 03:54:43;;;;;;;3.10;2.13;;;22.80;59.10;;;;;;5204963;28;20052;-80
2021/10/16 03:57:15;;;;;;;4.60;1.98;;;22.80;59.10;;;;;;5210258;28;20052;-80
2021/10/16 03:59:48;;;;;;;3.22;2.00;;;22.80;59.10;;;;;;5206482;28;20041;-80
2021/10/16 04:02:21;;;;;;;4.90;2.38;;;22.80;59.10;;;;;;5195565;28;20045;-80
2021/10/16 04:04:54;;;;;;;5.95;2.10;;;22.80;59.10;;;;;;5191688;28;20051;-80
2021/10/16 04:07:26;;;;;;;3.93;2.70;;;22.80;59.10;;;;;;5210357;28;20045;-81
2021/10/16 04:09:59;;;;;;;5.03;2.20;;;22.80;59.10;;;;;;5212644;28;20052;-80
2021/10/16 04:12:31;;;;;;;5.18;2.50;;;22.80;59.10;;;;;;5214805;28;21332;-80
2021/10/16 04:15:05;;;;;;;5.50;2.13;;;22.80;59.10;;;;;;5215760;28;20970;-80
2021/10/16 04:17:40;;;;;;;3.53;2.30;;;22.80;59.10;;;;;;5206130;28;20047;-80
2021/10/16 04:20:13;;;;;;;3.05;2.20;;;22.80;59.10;;;;;;5222424;28;20049;-80
2021/10/16 04:22:53;;;;;;;3.22;2.20;;;22.80;59.10;;;;;;5198400;28;20037;-80
2021/10/16 04:25:25;;;;;;;4.20;2.28;;;22.80;59.10;;;;;;5198813;28;20048;-80
2021/10/16 04:27:58;;;;;;;3.67;2.10;;;22.80;59.10;;;;;;5199812;28;26092;-80
2021/10/16 04:30:47;;;;;;;4.63;2.00;;;22.80;59.10;;;;;;5208729;28;20040;-80
2021/10/16 04:33:19;;;;;;;5.85;2.25;;;22.80;59.20;;;;;;5206495;28;20573;-81
2021/10/16 04:35:53;;;;;;;4.00;2.65;;;22.80;59.10;;;;;;5207073;28;20087;-80
2021/10/16 04:38:25;;;;;;;5.90;2.67;;;22.80;59.10;;;;;;5206515;28;20040;-80
2021/10/16 04:40:58;;;;;;;2.90;2.20;;;22.80;59.20;;;;;;5220135;28;20044;-81
2021/10/16 04:43:31;;;;;;;3.63;2.30;;;22.80;59.10;;;;;;5220467;28;20044;-80
2021/10/16 04:46:03;;;;;;;2.88;2.10;;;22.80;59.10;;;;;;5198299;28;20043;-81
2021/10/16 04:48:38;;;;;;;3.90;2.40;;;22.80;59.00;;;;;;5204201;28;20060;-80
2021/10/16 04:51:12;;;;;;;5.07;2.30;;;22.80;59.00;;;;;;5201178;28;20059;-81
2021/10/16 04:53:47;;;;;;;3.95;2.03;;;22.80;59.00;;;;;;5214924;28;20057;-80
2021/10/16 04:56:19;;;;;;;4.00;2.40;;;22.80;59.00;;;;;;5223356;28;20041;-81
2021/10/16 04:58:53;;;;;;;3.60;1.90;;;22.80;59.00;;;;;;5238024;28;20040;-81
2021/10/16 05:01:25;;;;;;;2.78;2.35;;;22.80;58.90;;;;;;5204489;28;20231;-80
2021/10/16 05:03:58;;;;;;;4.35;2.40;;;22.80;58.90;;;;;;5192929;28;20049;-81
2021/10/16 05:06:34;;;;;;;4.10;2.05;;;22.90;58.90;;;;;;5225320;28;20196;-81
2021/10/16 05:09:08;;;;;;;4.50;2.28;;;22.90;59.00;;;;;;5210067;28;20519;-81
2021/10/16 05:11:43;;;;;;;2.80;2.20;;;22.90;58.90;;;;;;5192715;28;20051;-80
2021/10/16 05:14:16;;;;;;;4.10;2.55;;;22.90;58.90;;;;;;5212119;28;20055;-80
2021/10/16 05:16:49;;;;;;;4.63;2.20;;;22.90;58.90;;;;;;5240566;28;20218;-80
2021/10/16 05:19:22;;;;;;;2.67;1.77;;;22.90;58.90;;;;;;5202308;28;20040;-80
2021/10/16 05:21:55;;;;;;;2.50;2.15;;;22.90;58.90;;;;;;5204914;28;20044;-81
2021/10/16 05:24:28;;;;;;;2.53;2.20;;;22.90;58.90;;;;;;5200208;28;20040;-81
2021/10/16 05:27:04;;;;;;;3.47;2.35;;;22.90;59.00;;;;;;5212129;28;20055;-81
2021/10/16 05:29:36;;;;;;;4.35;2.10;;;22.90;59.00;;;;;;5229111;28;20719;-81
2021/10/16 05:32:09;;;;;;;3.08;2.40;;;22.90;59.00;;;;;;5243765;28;20421;-81
2021/10/16 05:34:41;;;;;;;4.03;2.17;;;22.90;59.00;;;;;;5200165;28;20045;-80
2021/10/16 05:37:15;;;;;;;;;;;22.90;59.00;;;;;;5211413;28;20057;-81
2021/10/16 05:39:48;;;;;;;6.70;2.30;;;22.90;59.00;;;;;;5223055;28;20397;-81
2021/10/16 05:42:20;;;;;;;3.30;2.13;;;22.90;59.10;;;;;;5215762;28;20514;-81
2021/10/16 05:44:54;;;;;;;4.32;2.47;;;22.90;59.10;;;;;;5214121;28;20067;-81
2021/10/16 05:47:28;;;;;;;5.47;2.22;;;22.90;59.10;;;;;;5211042;28;20041;-81
2021/10/16 05:50:00;;;;;;;2.97;2.25;;;22.90;59.10;;;;;;5220324;28;20052;-81
2021/10/16 05:52:33;;;;;;;3.10;2.40;;;22.90;59.10;;;;;;5209054;28;20056;-81
2021/10/16 05:55:06;;;;;;;4.63;2.10;;;22.90;59.00;;;;;;5221181;28;20064;-81
2021/10/16 05:57:39;;;;;;;3.28;2.03;;;23.00;59.10;;;;;;5204551;28;20053;-81
2021/10/16 06:00:12;;;;;;;4.18;2.03;;;23.00;59.10;;;;;;5206421;28;20045;-81
2021/10/16 06:02:57;;;;;;;2.90;1.90;;;23.00;59.10;;;;;;5236827;28;20490;-81
2021/10/16 06:05:37;;;;;;;7.88;2.17;;;23.00;59.10;;;;;;5204421;28;20037;-81
2021/10/16 06:08:11;;;;;;;6.65;2.45;;;23.00;59.10;;;;;;5223730;28;20055;-81
2021/10/16 06:10:43;;;;;;;3.75;2.17;;;23.00;59.10;;;;;;5224907;28;20569;-81
2021/10/16 06:13:16;;;;;;;5.38;2.17;;;23.00;59.10;;;;;;5242037;28;20043;-81
2021/10/16 06:15:49;;;;;;;;;;;23.00;59.10;;;;;;5207625;28;20072;-81
2021/10/16 06:18:24;;;;;;;8.00;2.10;;;22.90;59.00;;;;;;5224231;28;19924;-81
2021/10/16 06:20:57;;;;;;;3.78;2.08;;;23.00;59.10;;;;;;5208657;28;20040;-81
2021/10/16 06:23:30;;;;;;;5.88;2.67;;;23.00;59.10;;;;;;5202794;28;20047;-81
2021/10/16 06:26:03;;;;;;;4.35;2.13;;;23.00;59.10;;;;;;5210883;28;20044;-81
2021/10/16 06:28:36;;;;;;;3.85;2.13;;;23.00;59.10;;;;;;5211638;28;20048;-81
2021/10/16 06:31:08;;;;;;;2.80;2.20;;;23.00;59.10;;;;;;5224308;28;20060;-81
2021/10/16 06:33:41;;;;;;;5.03;2.08;;;23.00;59.00;;;;;;5203697;28;20595;-81
2021/10/16 06:36:15;;;;;;;12.38;2.25;;;23.00;59.00;;;;;;5235440;28;20056;-81
2021/10/16 06:38:52;;;;;;;2.90;2.33;;;23.00;59.00;;;;;;5181744;28;20465;-81
2021/10/16 06:41:27;;;;;;;4.13;2.28;;;23.00;59.00;;;;;;5208483;28;20051;-81
2021/10/16 06:44:31;;;;;;;3.00;2.05;;;23.00;59.00;;;;;;5216689;28;20054;-81
2021/10/16 06:47:42;;;;;;;4.60;2.38;;;23.00;59.10;;;;;;5178302;28;20120;-81
2021/10/16 06:50:30;;;;;;;4.32;2.30;;;23.00;59.00;;;;;;5230971;28;20044;-78
2021/10/16 06:53:02;;;;;;;6.43;2.40;;;23.00;59.10;;;;;;5200707;28;20059;-80
2021/10/16 06:55:35;;;;;;;6.47;2.17;;;23.00;59.00;;;;;;5202279;28;20052;-80
2021/10/16 06:58:08;;;;;;;5.10;1.85;;;23.00;59.00;;;;;;5204919;28;20059;-80
2021/10/16 07:00:41;;;;;;;;;;;23.00;59.00;;;;;;5202231;28;20044;-80
2021/10/16 07:03:33;;;;;;;3.33;2.10;;;23.00;59.00;;;;;;5198929;28;19928;-80
2021/10/16 07:06:08;;;;;;;4.97;2.43;;;23.00;59.00;;;;;;5202352;28;20045;-80
2021/10/16 07:08:41;;;;;;;4.00;2.13;;;23.00;59.00;;;;;;5214584;28;20063;-80
2021/10/16 07:11:15;;;;;;;4.90;1.73;;;23.10;59.00;;;;;;5216184;28;20290;-81
2021/10/16 07:13:48;;;;;;;3.05;2.20;;;23.10;59.00;;;;;;5204684;28;21106;-79
2021/10/16 07:16:20;;;;;;;3.15;2.15;;;23.10;58.90;;;;;;5172176;28;20040;-81
2021/10/16 07:18:53;;;;;;;3.20;2.08;;;23.10;58.90;;;;;;5221826;28;20052;-79
2021/10/16 07:21:26;;;;;;;4.63;2.08;;;23.10;58.90;;;;;;5193566;28;20047;-80
2021/10/16 07:24:04;;;;;;;5.25;2.03;;;23.10;58.90;;;;;;5211266;28;20044;-81
2021/10/16 07:26:39;;;;;;;4.07;2.38;;;23.10;59.30;;;;;;5218070;28;20043;-80
2021/10/16 07:29:12;;;;;;;6.22;2.45;;;23.20;59.10;;;;;;5216028;28;20059;-80
2021/10/16 07:31:44;;;;;;;7.10;2.42;;;23.20;59.20;;;;;;5212856;28;20049;-80
2021/10/16 07:34:18;;;;;;;6.32;2.80;;;23.20;59.20;;;;;;5216450;28;20048;-80
2021/10/16 07:36:50;;;;;;;5.30;2.53;;;23.20;59.20;;;;;;5202169;28;20055;-80
2021/10/16 07:39:23;;;;;;;7.80;2.40;;;23.20;59.20;;;;;;5216885;28;20159;-80
2021/10/16 07:41:56;;;;;;;7.10;2.47;;;23.30;59.30;;;;;;5212879;28;20047;-80
2021/10/16 07:44:28;;;;;;;10.80;2.72;;;23.20;59.20;;;;;;5212132;28;20755;-80
2021/10/16 07:47:01;;;;;;;8.75;2.55;;;23.30;59.30;;;;;;5217862;28;20402;-80
2021/10/16 07:49:33;;;;;;;6.15;2.65;;;23.20;59.20;;;;;;5214536;28;20048;-80
2021/10/16 07:52:06;;;;;;;7.78;2.47;;;23.30;59.30;;;;;;5222558;28;20051;-80
2021/10/16 07:54:38;;;;;;;6.05;2.42;;;23.30;59.30;;;;;;5208203;28;20086;-80
2021/10/16 07:57:11;;;;;;;4.03;2.30;;;23.30;59.30;;;;;;5219249;28;20052;-80
2021/10/16 07:59:43;;;;;;;5.32;2.38;;;23.30;59.40;;;;;;5196605;28;20639;-80
2021/10/16 08:02:16;;;;;;;6.07;2.85;;;23.30;59.30;;;;;;5210055;28;20048;-80
2021/10/16 08:04:48;;;;;;;3.55;2.17;;;23.30;59.30;;;;;;5220004;28;20040;-80
2021/10/16 08:07:20;;;;;;;6.80;2.70;;;23.30;59.30;;;;;;5219240;28;20044;-80
2021/10/16 08:09:53;;;;;;;4.97;2.80;;;23.30;59.30;;;;;;5235047;28;20060;-80
2021/10/16 08:12:26;;;;;;;7.32;2.50;;;23.30;59.40;;;;;;5211769;28;20390;-80
2021/10/16 08:14:58;;;;;;;7.68;2.88;;;23.30;59.30;;;;;;5204788;28;20048;-80
2021/10/16 08:17:31;;;;;;;8.40;3.13;;;23.30;59.20;;;;;;5224470;28;20391;-80
2021/10/16 08:20:04;;;;;;;9.65;3.55;;;23.30;59.10;;;;;;5220618;28;20404;-80
2021/10/16 08:22:41;;;;;;;4.13;2.70;;;23.30;59.00;;;;;;5221092;28;21450;-79
2021/10/16 08:25:14;;;;;;;6.75;2.90;;;23.30;58.90;;;;;;5224120;28;20607;-79
2021/10/16 08:27:47;;;;;;;4.88;2.78;;;23.30;58.80;;;;;;5223074;28;20047;-80
2021/10/16 08:30:20;;;;;;;;;;;23.30;58.70;;;;;;5218094;28;20044;-80
2021/10/16 08:32:52;;;;;;;5.47;2.92;;;23.30;58.70;;;;;;5221701;28;20294;-80
2021/10/16 08:35:25;;;;;;;6.53;3.00;;;23.30;58.70;;;;;;5220464;28;20044;-80
2021/10/16 08:37:57;;;;;;;7.75;3.17;;;23.30;58.70;;;;;;5221385;28;20065;-80
2021/10/16 08:40:30;;;;;;;8.38;3.03;;;23.30;58.70;;;;;;5180631;28;20044;-80
2021/10/16 08:43:02;;;;;;;6.85;2.72;;;23.30;58.70;;;;;;5215856;28;20551;-80
2021/10/16 08:45:36;;;;;;;7.47;2.78;;;23.30;58.70;;;;;;5218237;28;20417;-79
2021/10/16 08:48:08;;;;;;;5.13;2.42;;;23.30;58.70;;;;;;5199631;28;20037;-79
2021/10/16 08:50:43;;;;;;;5.82;2.67;;;23.30;58.70;;;;;;5223553;28;20410;-79
2021/10/16 08:53:16;;;;;;;3.90;2.65;;;23.30;58.70;;;;;;5216519;28;20491;-79
2021/10/16 08:55:53;;;;;;;6.18;2.58;;;23.40;58.70;;;;;;5221274;28;20063;-79
2021/10/16 08:58:26;;;;;;;5.25;2.67;;;23.40;58.70;;;;;;5217802;28;20418;-79
2021/10/16 09:01:01;;;;;;;5.18;2.40;;;23.40;58.70;;;;;;5209724;28;25551;-79
2021/10/16 09:03:40;;;;;;;6.18;3.00;;;23.30;58.60;;;;;;5210082;28;20411;-79
2021/10/16 09:06:20;;;;;;;6.78;2.90;;;23.40;58.70;;;;;;5226003;28;20478;-79
2021/10/16 09:09:02;;;;;;;7.57;2.75;;;23.30;58.70;;;;;;5225077;28;20316;-79
2021/10/16 09:11:40;;;;;;;4.78;2.42;;;23.40;58.70;;;;;;5205883;28;20490;-79
2021/10/16 09:14:24;;;;;;;7.45;2.90;;;23.40;58.70;;;;;;5216019;28;20056;-79
2021/10/16 09:16:59;;;;;;;5.90;2.92;;;23.40;58.70;;;;;;5220643;28;20417;-79
2021/10/16 09:19:39;;;;;;;5.20;2.70;;;23.40;58.80;;;;;;5240585;28;20053;-79
2021/10/16 09:22:19;;;;;;;6.88;3.03;;;23.40;58.70;;;;;;5227115;28;20049;-79
2021/10/16 09:24:51;;;;;;;3.95;2.72;;;23.30;58.70;;;;;;5207595;28;20667;-79
2021/10/16 09:27:24;;;;;;;2.55;2.20;;;23.30;58.70;;;;;;5224663;28;20048;-79
2021/10/16 09:30:05;;;;;;;6.53;2.80;;;23.40;58.70;;;;;;5222991;28;20243;-81
2021/10/16 09:32:54;;;;;;;4.70;3.05;;;23.40;58.60;;;;;;5198695;28;20536;-79
2021/10/16 09:35:35;;;;;;;6.15;2.72;;;23.40;58.50;;;;;;5208592;28;20045;-79
2021/10/16 09:38:07;;;;;;;5.78;3.22;;;23.30;58.50;;;;;;5171846;28;20510;-79
2021/10/16 09:40:41;;;;;;;16.67;3.70;;;23.40;58.60;;;;;;5179107;28;20048;-79
2021/10/16 09:43:21;;;;;;;4.43;2.63;;;23.40;58.60;;;;;;5205294;28;20048;-79
2021/10/16 09:46:14;;;;;;;8.70;3.00;;;23.40;58.40;;;;;;5202895;28;20583;-79
2021/10/16 09:48:47;;;;;;;8.77;2.83;;;23.40;58.40;;;;;;5207693;28;20063;-79
2021/10/16 09:51:22;;;;;;;4.90;2.92;;;23.40;58.40;;;;;;5208461;28;20076;-79
2021/10/16 09:54:08;;;;;;;5.25;2.80;;;23.40;58.30;;;;;;5207500;28;20119;-79
2021/10/16 09:56:41;;;;;;;8.88;2.80;;;23.40;58.30;;;;;;5207710;28;20063;-79
2021/10/16 09:59:17;;;;;;;12.10;3.70;;;23.40;58.40;;;;;;5183818;28;20295;-79
2021/10/16 10:01:50;;;;;;;7.28;3.17;;;23.40;58.50;;;;;;5216404;28;20052;-80
2021/10/16 10:04:23;;;;;;;11.15;2.70;;;23.40;58.70;;;;;;5216007;28;20505;-80
2021/10/16 10:06:57;;;;;;;7.03;3.13;;;23.40;58.90;;;;;;5217147;28;20041;-80
2021/10/16 10:09:31;;;;;;;7.65;2.97;;;23.40;59.10;;;;;;5185314;28;20048;-80
2021/10/16 10:12:05;;;;;;;9.32;2.85;;;23.50;59.30;;;;;;5197741;28;20521;-80
2021/10/16 10:14:41;;;;;;;;;;;23.40;59.50;;;;;;5217559;28;20276;-80
2021/10/16 10:17:17;;;;;;;10.70;3.03;;;23.40;59.70;;;;;;5213550;28;19920;-79
2021/10/16 10:19:55;;;;;;;7.40;3.13;;;23.40;59.80;;;;;;5213929;28;20056;-80
2021/10/16 10:22:34;;;;;;;9.10;2.45;;;23.40;60.00;;;;;;5213010;28;20049;-79
2021/10/16 10:25:24;;;;;;;14.40;3.10;;;23.50;60.20;;;;;;5208052;28;20668;-79
2021/10/16 10:27:57;;;;;;;10.85;3.10;;;23.50;60.10;;;;;;5213862;28;20687;-79
2021/10/16 10:30:35;;;;;;;9.00;3.13;;;23.50;60.10;;;;;;5210039;28;20049;-79
2021/10/16 10:33:19;;;;;;;13.57;3.67;;;23.50;60.00;;;;;;5214267;28;20082;-79
2021/10/16 10:35:58;;;;;;;;;;;23.50;60.00;;;;;;5209019;28;20044;-78
2021/10/16 10:38:39;;;;;;;11.10;3.72;;;23.50;60.30;;;;;;5187957;28;19931;-79
2021/10/16 10:41:24;;;;;;;16.33;2.90;;;23.50;60.30;;;;;;5217446;28;20559;-79
2021/10/16 10:43:57;;;;;;;8.93;3.38;;;23.50;60.40;;;;;;5194133;28;20044;-79
2021/10/16 10:46:30;;;;;;;14.50;4.00;;;23.40;60.40;;;;;;5209426;28;20084;-79
2021/10/16 10:49:08;;;;;;;12.35;2.97;;;23.50;60.60;;;;;;5199820;28;20048;-79
2021/10/16 10:51:41;;;;;;;8.82;3.20;;;23.50;60.70;;;;;;5180820;28;20064;-79
2021/10/16 10:54:20;;;;;;;11.85;3.08;;;23.60;60.70;;;;;;5225364;28;20063;-79
2021/10/16 10:56:57;;;;;;;7.68;3.28;;;23.60;60.50;;;;;;5216333;28;20056;-80
2021/10/16 10:59:54;;;;;;;9.60;3.05;;;23.60;60.40;;;;;;5214419;28;20056;-80
2021/10/16 11:02:30;;;;;;;25.83;4.28;;;23.70;60.50;;;;;;5218005;28;20339;-80
2021/10/16 11:05:24;;;;;;;6.10;3.10;;;23.80;60.30;;;;;;5224142;28;20044;-80
2021/10/16 11:08:09;;;;;;;10.60;3.13;;;23.80;60.30;;;;;;5180892;28;20045;-80
2021/10/16 11:10:43;;;;;;;18.77;2.70;;;24.00;60.20;;;;;;5219362;28;20052;-79
2021/10/16 11:13:20;;;;;;;6.28;2.90;;;23.90;60.00;;;;;;5216241;28;20044;-80
2021/10/16 11:15:59;;;;;;;10.52;3.03;;;24.10;59.90;;;;;;5219202;28;20044;-79
2021/10/16 11:18:32;;;;;;;11.25;3.33;;;24.10;59.90;;;;;;5217471;28;20051;-79
2021/10/16 11:21:11;;;;;;;10.93;3.38;;;24.20;59.80;;;;;;5217881;28;20044;-79
2021/10/16 11:23:44;;;;;;;8.32;2.45;;;24.20;59.50;;;;;;5220104;28;20055;-80
2021/10/16 11:26:16;;;;;;;13.95;2.83;;;24.20;59.60;;;;;;5215536;28;20390;-80
2021/10/16 11:28:49;;;;;;;7.30;3.47;;;24.20;59.50;;;;;;5185194;28;20051;-83
2021/10/16 11:31:22;;;;;;;7.28;3.17;;;24.30;58.50;;;;;;5211210;28;20044;-81
2021/10/16 11:34:06;;;;;;;14.32;3.53;;;24.40;57.50;;;;;;5219205;28;20037;-81
2021/10/16 11:36:46;;;;;;;;;;;24.40;56.80;;;;;;5210316;28;20091;-81
2021/10/16 11:39:22;;;;;;;4.32;2.78;;;24.40;56.10;;;;;;5239356;28;19921;-82
2021/10/16 11:41:55;;;;;;;8.77;4.05;;;24.50;56.00;;;;;;5233519;28;20044;-82
2021/10/16 11:44:28;;;;;;;7.38;2.90;;;24.50;55.60;;;;;;5232431;28;20591;-81
2021/10/16 11:47:04;;;;;;;;;;;24.50;55.30;;;;;;5234421;28;20048;-81
2021/10/16 11:49:37;;;;;;;8.57;3.55;;;24.40;54.90;;;;;;5233714;28;19979;-82
2021/10/16 11:52:28;;;;;;;7.32;2.53;;;24.40;54.80;;;;;;5246291;28;20059;-82
2021/10/16 11:55:11;;;;;;;6.57;2.83;;;24.50;54.70;;;;;;5233297;28;20041;-82
2021/10/16 11:57:44;;;;;;;7.88;2.75;;;24.50;55.10;;;;;;5212199;28;20056;-81
2021/10/16 12:00:25;;;;;;;3.15;2.40;;;24.50;55.30;;;;;;5196996;28;20048;-81
2021/10/16 12:03:05;;;;;;;5.30;2.47;;;24.50;55.60;;;;;;5223259;28;20051;-81
2021/10/16 12:05:38;;;;;;;9.50;2.35;;;24.50;55.70;;;;;;5206321;28;20049;-81
2021/10/16 12:08:24;;;;;;;8.25;2.33;;;24.50;56.00;;;;;;5228916;28;20041;-80
2021/10/16 12:10:59;;;;;;;8.23;2.88;;;24.40;56.10;;;;;;5229626;28;20076;-79
2021/10/16 12:13:43;;;;;;;5.72;2.35;;;24.40;56.40;;;;;;5209378;28;20052;-79
2021/10/16 12:16:18;;;;;;;6.30;2.50;;;24.40;56.70;;;;;;5228709;28;20063;-80
2021/10/16 12:18:55;;;;;;;4.78;2.28;;;24.40;57.00;;;;;;5208463;28;20051;-81
2021/10/16 12:21:32;;;;;;;7.28;2.75;;;24.40;57.00;;;;;;5221327;28;20040;-82
2021/10/16 12:24:15;;;;;;;3.50;2.38;;;24.40;57.10;;;;;;5221980;28;20041;-82
2021/10/16 12:27:01;;;;;;;4.15;2.00;;;24.40;57.20;;;;;;5226564;28;20492;-81
2021/10/16 12:29:37;;;;;;;4.20;2.40;;;24.50;57.20;;;;;;5223642;28;20044;-83
2021/10/16 12:32:12;;;;;;;3.15;2.40;;;24.60;57.30;;;;;;5214236;28;20041;-78
2021/10/16 12:34:52;;;;;;;5.57;2.53;;;24.60;57.40;;;;;;5217434;28;20064;-79
2021/10/16 12:37:25;;;;;;;6.35;2.60;;;24.70;56.70;;;;;;5219824;28;20055;-80
2021/10/16 12:40:05;;;;;;;8.35;2.67;;;24.70;56.00;;;;;;5196957;28;20067;-78
2021/10/16 12:42:38;;;;;;;7.20;3.15;;;24.80;55.30;;;;;;5198548;28;20044;-77
2021/10/16 12:45:12;;;;;;;10.65;2.88;;;24.90;54.80;;;;;;5183291;28;20505;-78
2021/10/16 12:47:44;;;;;;;8.15;3.35;;;24.90;54.20;;;;;;5205991;28;20041;-76
2021/10/16 12:50:18;;;;;;;9.52;3.75;;;25.00;53.70;;;;;;4835725;28;10000458;-77
2021/10/16 13:06:57;;;;;;;8.50;3.08;;;25.00;53.10;;;;;;5196727;28;20341;-76
2021/10/16 13:09:29;;;;;;;4.00;2.83;;;25.00;53.60;;;;;;5211041;28;20049;-76
2021/10/16 13:12:02;;;;;;;8.20;2.88;;;24.90;53.80;;;;;;5184605;28;20212;-77
2021/10/16 13:14:35;;;;;;;11.27;2.63;;;24.80;53.80;;;;;;5198424;28;20712;-79
2021/10/16 13:17:07;;;;;;;7.82;3.60;;;24.80;53.90;;;;;;5195001;28;20052;-80
2021/10/16 13:19:40;;;;;;;4.00;2.70;;;24.90;53.90;;;;;;5211597;28;20376;-81
2021/10/16 13:22:12;;;;;;;6.50;2.93;;;24.90;53.80;;;;;;5202759;28;20048;-81
2021/10/16 13:24:45;;;;;;;5.43;3.05;;;25.00;53.70;;;;;;5204385;28;20044;-81
2021/10/16 13:27:18;;;;;;;12.95;2.92;;;25.10;53.60;;;;;;5226116;28;20041;-82
2021/10/16 13:29:50;;;;;;;4.90;2.75;;;25.10;54.20;;;;;;5207753;28;20056;-81
2021/10/16 13:32:33;;;;;;;11.73;3.10;;;25.20;53.50;;;;;;5222460;28;20052;-81
2021/10/16 13:35:06;;;;;;;5.45;3.30;;;25.20;53.30;;;;;;5209019;28;20056;-82
2021/10/16 13:37:38;;;;;;;4.22;2.58;;;25.30;53.20;;;;;;5225861;28;20060;-82
2021/10/16 13:40:12;;;;;;;5.90;3.20;;;25.40;53.20;;;;;;5229263;28;20394;-81
2021/10/16 13:42:44;;;;;;;;;;;25.40;53.00;;;;;;5225025;28;20757;-81